createdAt,value
2022-08-26T00:02:12.762Z,22.20
2022-08-26T00:04:39.394Z,22.05
2022-08-26T00:07:06.229Z,22.04
2022-08-26T00:09:33.066Z,22.05
2022-08-26T00:12:04.046Z,22.02
2022-08-26T00:14:31.650Z,21.94
2022-08-26T00:16:58.498Z,21.87
2022-08-26T00:19:25.248Z,21.74
2022-08-26T00:21:51.726Z,21.78
2022-08-26T00:24:19.268Z,21.57
2022-08-26T00:26:45.823Z,21.44
2022-08-26T00:29:13.053Z,21.48
2022-08-26T00:31:40.078Z,21.47
2022-08-26T00:34:07.284Z,21.30
2022-08-26T00:36:36.169Z,21.21
2022-08-26T00:39:03.134Z,21.33
2022-08-26T00:41:29.645Z,21.12
2022-08-26T00:43:56.286Z,21.07
2022-08-26T00:46:26.927Z,21.08
2022-08-26T00:48:58.746Z,21.08
2022-08-26T00:51:29.695Z,21.09
2022-08-26T00:54:06.551Z,21.03
2022-08-26T00:56:36.319Z,20.99
2022-08-26T00:59:05.196Z,20.90
2022-08-26T01:01:32.268Z,21.00
2022-08-26T01:04:00.030Z,20.99
2022-08-26T01:06:27.315Z,21.05
2022-08-26T01:08:54.305Z,20.97
2022-08-26T01:11:20.925Z,21.00
2022-08-26T01:13:48.698Z,21.04
2022-08-26T01:16:16.102Z,21.09
2022-08-26T01:18:43.425Z,21.04
2022-08-26T01:21:36.428Z,20.84
2022-08-26T01:24:07.954Z,20.90
2022-08-26T01:26:40.493Z,20.75
2022-08-26T01:29:08.075Z,20.76
2022-08-26T01:31:39.007Z,20.84
2022-08-26T01:34:05.514Z,21.09
2022-08-26T01:36:32.038Z,21.13
2022-08-26T01:38:58.527Z,21.29
2022-08-26T01:41:27.210Z,21.36
2022-08-26T01:43:55.809Z,21.41
2022-08-26T01:46:23.396Z,21.33
2022-08-26T01:48:52.396Z,21.36
2022-08-26T01:51:22.738Z,21.32
2022-08-26T01:53:49.558Z,21.20
2022-08-26T01:56:16.369Z,21.21
2022-08-26T01:58:47.966Z,21.15
2022-08-26T02:01:15.549Z,21.15
2022-08-26T02:03:56.371Z,21.03
2022-08-26T02:06:23.732Z,21.08
2022-08-26T02:08:52.938Z,20.92
2022-08-26T02:11:19.513Z,20.81
2022-08-26T02:13:48.976Z,20.80
2022-08-26T02:16:16.334Z,20.82
2022-08-26T02:18:43.899Z,20.83
2022-08-26T02:21:13.774Z,20.79
2022-08-26T02:23:40.314Z,20.72
2022-08-26T02:26:12.463Z,20.69
2022-08-26T02:28:54.400Z,20.48
2022-08-26T02:31:20.979Z,20.37
2022-08-26T02:33:48.959Z,20.37
2022-08-26T02:36:22.884Z,20.17
2022-08-26T02:38:49.656Z,20.20
2022-08-26T02:41:18.522Z,20.17
2022-08-26T02:43:45.421Z,20.09
2022-08-26T02:46:12.034Z,19.85
2022-08-26T02:48:47.841Z,19.90
2022-08-26T02:51:14.381Z,19.87
2022-08-26T02:53:40.902Z,19.78
2022-08-26T02:56:09.534Z,19.78
2022-08-26T02:58:35.989Z,19.61
2022-08-26T03:01:04.756Z,19.66
2022-08-26T03:03:32.030Z,19.60
2022-08-26T03:05:59.144Z,19.41
2022-08-26T03:08:25.656Z,19.40
2022-08-26T03:10:52.197Z,19.45
2022-08-26T03:13:19.284Z,19.40
2022-08-26T03:15:45.984Z,19.25
2022-08-26T03:18:14.308Z,19.31
2022-08-26T03:20:40.757Z,19.31
2022-08-26T03:23:07.848Z,19.24
2022-08-26T03:25:35.640Z,19.21
2022-08-26T03:28:03.252Z,19.19
2022-08-26T03:30:45.405Z,19.25
2022-08-26T03:33:13.061Z,19.34
2022-08-26T03:35:40.727Z,19.38
2022-08-26T03:38:08.414Z,19.42
2022-08-26T03:40:38.760Z,19.41
2022-08-26T03:43:07.300Z,19.50
2022-08-26T03:45:37.373Z,19.51
2022-08-26T03:48:04.178Z,19.30
2022-08-26T03:50:31.120Z,19.44
2022-08-26T03:53:01.004Z,19.34
2022-08-26T03:55:31.080Z,19.32
2022-08-26T03:57:57.786Z,19.21
2022-08-26T04:00:24.394Z,19.31
2022-08-26T04:02:53.250Z,19.31
2022-08-26T04:05:20.648Z,19.23
2022-08-26T04:07:48.526Z,19.32
2022-08-26T04:10:20.192Z,19.20
2022-08-26T04:12:47.197Z,19.30
2022-08-26T04:15:15.582Z,19.36
2022-08-26T04:17:42.511Z,19.45
2022-08-26T04:20:09.659Z,19.42
2022-08-26T04:22:36.126Z,19.50
2022-08-26T04:25:02.696Z,19.55
2022-08-26T04:27:33.731Z,19.67
2022-08-26T04:30:00.569Z,19.76
2022-08-26T04:32:27.178Z,19.87
2022-08-26T04:34:53.654Z,19.93
2022-08-26T04:37:20.185Z,20.14
2022-08-26T04:39:50.943Z,20.29
2022-08-26T04:42:21.081Z,20.46
2022-08-26T04:44:52.662Z,20.55
2022-08-26T04:47:19.117Z,20.79
2022-08-26T04:49:45.576Z,20.89
2022-08-26T04:52:12.081Z,20.96
2022-08-26T04:54:39.053Z,21.23
2022-08-26T04:57:08.522Z,21.24
2022-08-26T04:59:38.960Z,21.39
2022-08-26T05:02:06.968Z,22.53
2022-08-26T05:04:34.024Z,23.91
2022-08-26T05:07:02.650Z,25.00
2022-08-26T05:09:29.741Z,25.98
2022-08-26T05:11:57.190Z,26.87
2022-08-26T05:14:23.691Z,27.72
2022-08-26T05:16:51.060Z,28.08
2022-08-26T05:19:18.972Z,28.96
2022-08-26T05:21:45.946Z,28.08
2022-08-26T05:24:13.635Z,28.87
2022-08-26T05:26:40.100Z,27.83
2022-08-26T05:29:06.646Z,29.05
2022-08-26T05:31:34.317Z,29.78
2022-08-26T05:34:03.497Z,30.22
2022-08-26T05:36:30.967Z,30.81
2022-08-26T05:38:57.878Z,30.87
2022-08-26T05:41:34.273Z,30.40
2022-08-26T05:44:03.691Z,30.37
2022-08-26T05:46:30.306Z,31.82
2022-08-26T05:48:57.166Z,31.49
2022-08-26T05:51:26.079Z,32.02
2022-08-26T05:53:54.878Z,32.77
2022-08-26T05:56:24.731Z,30.71
2022-08-26T05:58:51.173Z,32.86
2022-08-26T06:01:19.617Z,33.67
2022-08-26T06:03:51.726Z,32.35
2022-08-26T06:06:28.782Z,32.28
2022-08-26T06:08:57.991Z,31.68
2022-08-26T06:11:25.543Z,33.39
2022-08-26T06:13:53.372Z,33.78
2022-08-26T06:16:21.591Z,34.37
2022-08-26T06:18:48.929Z,33.57
2022-08-26T06:21:26.218Z,34.68
2022-08-26T06:24:12.395Z,35.43
2022-08-26T06:26:39.399Z,34.17
2022-08-26T06:29:09.408Z,32.65
2022-08-26T06:31:36.443Z,34.22
2022-08-26T06:34:07.369Z,34.72
2022-08-26T06:36:37.092Z,32.56
2022-08-26T06:39:09.437Z,34.21
2022-08-26T06:41:40.162Z,35.13
2022-08-26T06:44:09.702Z,35.27
2022-08-26T06:46:36.607Z,33.49
2022-08-26T06:49:03.213Z,33.31
2022-08-26T06:51:32.164Z,34.93
2022-08-26T06:54:02.465Z,34.83
2022-08-26T06:56:35.816Z,35.55
2022-08-26T06:59:02.792Z,34.45
2022-08-26T07:01:34.356Z,34.48
2022-08-26T07:04:03.893Z,34.29
2022-08-26T07:06:39.029Z,34.26
2022-08-26T07:09:06.545Z,35.12
2022-08-26T07:11:37.257Z,35.82
2022-08-26T07:14:04.470Z,34.86
2022-08-26T07:16:31.008Z,34.58
2022-08-26T07:18:57.578Z,34.00
2022-08-26T07:21:24.668Z,36.17
2022-08-26T07:23:52.454Z,35.36
2022-08-26T07:26:20.714Z,35.68
2022-08-26T07:28:48.658Z,36.12
2022-08-26T07:31:16.156Z,35.05
2022-08-26T07:33:42.734Z,34.16
2022-08-26T07:36:10.839Z,35.00
2022-08-26T07:38:38.765Z,33.77
2022-08-26T07:41:05.413Z,33.51
2022-08-26T07:43:32.550Z,34.60
2022-08-26T07:45:59.006Z,35.28
2022-08-26T07:48:25.570Z,34.57
2022-08-26T07:50:53.784Z,35.39
2022-08-26T07:53:21.455Z,35.56
2022-08-26T07:55:51.150Z,35.04
2022-08-26T07:58:19.111Z,36.11
2022-08-26T08:00:45.886Z,35.85
2022-08-26T08:03:13.078Z,34.02
2022-08-26T08:05:41.263Z,35.20
2022-08-26T08:08:26.255Z,33.73
2022-08-26T08:10:55.509Z,34.33
2022-08-26T08:13:23.517Z,34.02
2022-08-26T08:15:50.331Z,33.08
2022-08-26T08:18:16.950Z,32.93
2022-08-26T08:20:47.659Z,33.44
2022-08-26T08:23:26.011Z,33.47
2022-08-26T08:26:01.366Z,32.89
2022-08-26T08:28:28.037Z,33.55
2022-08-26T08:30:54.663Z,33.39
2022-08-26T08:33:21.131Z,32.78
2022-08-26T08:35:48.442Z,33.15
2022-08-26T08:38:15.725Z,33.82
2022-08-26T08:40:43.973Z,34.02
2022-08-26T08:43:13.574Z,33.90
2022-08-26T08:45:42.541Z,33.60
2022-08-26T08:48:18.043Z,33.31
2022-08-26T08:50:46.218Z,32.75
2022-08-26T08:53:32.908Z,33.24
2022-08-26T08:56:05.235Z,32.95
2022-08-26T08:58:40.339Z,32.33
2022-08-26T09:01:12.183Z,32.73
2022-08-26T09:03:51.387Z,32.95
2022-08-26T09:06:18.837Z,33.00
2022-08-26T09:08:46.658Z,32.47
2022-08-26T09:11:17.565Z,31.77
2022-08-26T09:13:52.029Z,32.87
2022-08-26T09:16:37.301Z,32.67
2022-08-26T09:19:33.509Z,33.09
2022-08-26T09:22:00.526Z,33.37
2022-08-26T09:24:29.482Z,33.64
2022-08-26T09:26:58.250Z,33.00
2022-08-26T09:29:26.756Z,32.87
2022-08-26T09:32:12.915Z,33.38
2022-08-26T09:34:52.071Z,33.09
2022-08-26T09:37:32.369Z,33.29
2022-08-26T09:40:26.901Z,32.46
2022-08-26T09:43:22.456Z,32.75
2022-08-26T09:45:58.420Z,33.58
2022-08-26T09:48:26.158Z,33.71
2022-08-26T09:50:55.031Z,33.86
2022-08-26T09:53:28.495Z,33.76
2022-08-26T09:56:14.875Z,33.65
2022-08-26T09:58:43.504Z,34.07
2022-08-26T10:01:15.886Z,34.16
2022-08-26T10:03:43.425Z,33.52
2022-08-26T10:06:12.804Z,33.97
2022-08-26T10:08:42.091Z,33.33
2022-08-26T10:11:16.996Z,33.12
2022-08-26T10:13:46.158Z,33.35
2022-08-26T10:16:33.333Z,34.04
2022-08-26T10:19:13.257Z,33.64
2022-08-26T10:21:53.083Z,33.67
2022-08-26T10:24:23.723Z,33.86
2022-08-26T10:26:58.795Z,34.45
2022-08-26T10:29:29.707Z,34.45
2022-08-26T10:32:03.647Z,34.26
2022-08-26T10:34:32.037Z,35.34
2022-08-26T10:37:14.991Z,34.82
2022-08-26T10:39:51.947Z,34.20
2022-08-26T10:42:35.241Z,34.78
2022-08-26T10:45:05.594Z,35.62
2022-08-26T10:47:44.873Z,35.09
2022-08-26T10:50:11.451Z,35.67
2022-08-26T10:53:08.753Z,34.99
2022-08-26T10:55:53.133Z,35.49
2022-08-26T10:58:26.300Z,35.69
2022-08-26T11:01:17.015Z,36.06
2022-08-26T11:04:08.705Z,35.95
2022-08-26T11:06:37.113Z,34.91
2022-08-26T11:09:08.685Z,34.70
2022-08-26T11:11:41.351Z,35.17
2022-08-26T11:14:09.195Z,35.07
2022-08-26T11:16:49.714Z,34.59
2022-08-26T11:19:50.544Z,35.46
2022-08-26T11:22:25.705Z,36.15
2022-08-26T11:24:54.962Z,35.30
2022-08-26T11:27:24.907Z,34.89
2022-08-26T11:30:10.768Z,35.00
2022-08-26T11:32:39.258Z,35.62
2022-08-26T11:35:07.093Z,35.49
2022-08-26T11:37:40.612Z,35.49
2022-08-26T11:40:08.275Z,36.29
2022-08-26T11:42:51.885Z,35.35
2022-08-26T11:45:27.567Z,35.24
2022-08-26T11:47:54.873Z,35.03
2022-08-26T11:50:26.390Z,35.42
2022-08-26T11:52:55.648Z,35.92
2022-08-26T11:55:23.296Z,36.08
2022-08-26T11:57:53.224Z,35.92
2022-08-26T12:00:24.310Z,36.64
2022-08-26T12:02:52.396Z,36.09
2022-08-26T12:05:24.440Z,37.03
2022-08-26T12:07:54.399Z,37.37
2022-08-26T12:10:30.027Z,37.12
2022-08-26T12:12:58.684Z,35.86
2022-08-26T12:15:26.412Z,35.70
2022-08-26T12:17:56.148Z,35.08
2022-08-26T12:20:45.791Z,34.83
2022-08-26T12:23:26.999Z,35.41
2022-08-26T12:26:02.280Z,34.88
2022-08-26T12:28:30.094Z,35.68
2022-08-26T12:31:00.937Z,36.09
2022-08-26T12:33:27.986Z,35.49
2022-08-26T12:35:56.709Z,36.67
2022-08-26T12:38:24.951Z,37.03
2022-08-26T12:40:51.835Z,36.02
2022-08-26T12:43:41.635Z,36.86
2022-08-26T12:46:10.320Z,36.35
2022-08-26T12:48:38.845Z,36.09
2022-08-26T12:51:15.393Z,35.12
2022-08-26T12:53:43.510Z,35.26
2022-08-26T12:56:30.153Z,35.22
2022-08-26T12:59:20.868Z,35.07
2022-08-26T13:01:48.497Z,35.52
2022-08-26T13:04:49.000Z,36.62
2022-08-26T13:07:20.916Z,36.60
2022-08-26T13:09:47.747Z,36.90
2022-08-26T13:12:23.270Z,35.68
2022-08-26T13:14:50.890Z,35.67
2022-08-26T13:17:17.357Z,36.44
2022-08-26T13:19:43.871Z,36.50
2022-08-26T13:22:11.914Z,36.06
2022-08-26T13:24:40.520Z,36.16
2022-08-26T13:27:08.009Z,35.62
2022-08-26T13:29:34.882Z,35.41
2022-08-26T13:32:01.649Z,34.65
2022-08-26T13:34:28.594Z,35.54
2022-08-26T13:36:56.348Z,36.17
2022-08-26T13:39:23.675Z,35.93
2022-08-26T13:41:50.569Z,35.79
2022-08-26T13:44:17.448Z,35.55
2022-08-26T13:49:12.114Z,35.54
2022-08-26T13:51:38.959Z,35.93
2022-08-26T13:54:06.028Z,36.00
2022-08-26T13:56:32.846Z,36.48
2022-08-26T13:59:00.098Z,35.94
2022-08-26T14:01:28.708Z,36.53
2022-08-26T14:03:55.334Z,35.83
2022-08-26T14:06:21.918Z,36.27
2022-08-26T14:08:48.634Z,35.84
2022-08-26T14:11:15.222Z,35.41
2022-08-26T14:13:41.762Z,36.08
2022-08-26T14:16:10.644Z,36.04
2022-08-26T14:18:42.581Z,36.43
2022-08-26T14:21:12.638Z,35.41
2022-08-26T14:23:39.140Z,35.49
2022-08-26T14:26:08.448Z,35.65
2022-08-26T14:28:35.388Z,35.35
2022-08-26T14:31:02.515Z,34.61
2022-08-26T14:33:32.328Z,35.09
2022-08-26T14:36:19.586Z,35.70
2022-08-26T14:38:46.351Z,34.72
2022-08-26T14:41:14.001Z,34.49
2022-08-26T14:43:42.878Z,34.34
2022-08-26T14:46:09.424Z,35.10
2022-08-26T14:48:35.970Z,34.95
2022-08-26T14:51:02.465Z,34.90
2022-08-26T14:53:47.678Z,35.16
2022-08-26T14:56:16.717Z,35.31
2022-08-26T14:58:44.108Z,35.30
2022-08-26T15:01:12.919Z,35.32
2022-08-26T15:03:39.581Z,34.18
2022-08-26T15:06:06.419Z,34.03
2022-08-26T15:08:36.558Z,34.36
2022-08-26T15:11:03.918Z,34.46
2022-08-26T15:13:30.531Z,34.62
2022-08-26T15:15:57.024Z,34.05
2022-08-26T15:18:23.560Z,33.91
2022-08-26T15:20:50.442Z,34.20
2022-08-26T15:23:16.926Z,34.21
2022-08-26T15:25:44.648Z,33.73
2022-08-26T15:28:11.218Z,33.35
2022-08-26T15:30:38.276Z,33.21
2022-08-26T15:33:04.773Z,33.18
2022-08-26T15:35:32.977Z,33.08
2022-08-26T15:38:02.605Z,32.76
2022-08-26T15:40:29.171Z,32.74
2022-08-26T15:43:11.364Z,32.83
2022-08-26T15:45:42.240Z,33.02
2022-08-26T15:48:08.731Z,32.95
2022-08-26T15:50:35.289Z,32.66
2022-08-26T15:53:01.960Z,32.50
2022-08-26T15:55:28.609Z,32.48
2022-08-26T15:57:55.684Z,32.34
2022-08-26T16:00:23.354Z,32.27
2022-08-26T16:02:50.439Z,31.94
2022-08-26T16:05:17.356Z,32.08
2022-08-26T16:07:43.858Z,32.08
2022-08-26T16:10:10.474Z,31.89
2022-08-26T16:12:37.012Z,31.90
2022-08-26T16:15:03.706Z,31.89
2022-08-26T16:17:30.186Z,31.94
2022-08-26T16:19:56.676Z,31.66
2022-08-26T16:22:23.241Z,31.68
2022-08-26T16:24:50.288Z,31.71
2022-08-26T16:27:16.863Z,31.72
2022-08-26T16:29:43.383Z,31.66
2022-08-26T16:32:09.936Z,31.67
2022-08-26T16:34:36.530Z,31.32
2022-08-26T16:37:03.208Z,31.21
2022-08-26T16:39:29.834Z,30.94
2022-08-26T16:41:56.376Z,31.01
2022-08-26T16:44:22.933Z,30.99
2022-08-26T16:46:50.017Z,30.93
2022-08-26T16:49:22.552Z,30.77
2022-08-26T16:51:49.540Z,30.73
2022-08-26T16:54:16.071Z,30.61
2022-08-26T16:56:42.542Z,30.47
2022-08-26T16:59:11.477Z,30.48
2022-08-26T17:01:38.081Z,30.20
2022-08-26T17:04:04.884Z,30.40
2022-08-26T17:06:31.430Z,30.38
2022-08-26T17:08:58.043Z,29.94
2022-08-26T17:11:24.588Z,29.83
2022-08-26T17:13:51.116Z,29.81
2022-08-26T17:16:17.646Z,29.60
2022-08-26T17:18:44.371Z,29.39
2022-08-26T17:21:11.838Z,29.42
2022-08-26T17:23:38.872Z,29.37
2022-08-26T17:26:05.535Z,29.28
2022-08-26T17:28:32.385Z,29.18
2022-08-26T17:30:59.139Z,29.01
2022-08-26T17:33:26.247Z,28.78
2022-08-26T17:35:53.200Z,28.75
2022-08-26T17:38:21.172Z,28.55
2022-08-26T17:40:47.881Z,28.33
2022-08-26T17:43:14.524Z,28.23
2022-08-26T17:45:41.431Z,27.96
2022-08-26T17:48:09.055Z,27.89
2022-08-26T17:50:35.753Z,27.92
2022-08-26T17:53:02.319Z,27.72
2022-08-26T17:55:29.284Z,27.58
2022-08-26T17:57:55.885Z,27.53
2022-08-26T18:00:26.482Z,27.34
2022-08-26T18:02:58.561Z,27.20
2022-08-26T18:05:25.192Z,27.11
2022-08-26T18:07:51.808Z,26.91
2022-08-26T18:10:19.447Z,26.87
2022-08-26T18:12:45.999Z,26.79
2022-08-26T18:15:14.135Z,26.65
2022-08-26T18:17:56.297Z,26.64
2022-08-26T18:20:43.583Z,26.53
2022-08-26T18:23:10.866Z,26.36
2022-08-26T18:25:40.737Z,26.20
2022-08-26T18:28:27.874Z,26.09
2022-08-26T18:30:57.495Z,25.96
2022-08-26T18:33:24.416Z,25.87
2022-08-26T18:35:50.887Z,25.74
2022-08-26T18:38:17.755Z,25.53
2022-08-26T18:40:45.933Z,25.38
2022-08-26T18:43:12.571Z,25.37
2022-08-26T18:45:39.189Z,25.37
2022-08-26T18:48:05.769Z,25.38
2022-08-26T18:50:32.313Z,25.16
2022-08-26T18:52:58.815Z,25.09
2022-08-26T18:55:45.335Z,25.19
2022-08-26T18:58:31.875Z,25.24
2022-08-26T19:01:03.012Z,25.25
2022-08-26T19:03:49.395Z,25.45
2022-08-26T19:06:36.347Z,25.34
2022-08-26T19:09:23.093Z,25.24
2022-08-26T19:11:50.194Z,25.20
2022-08-26T19:14:25.566Z,25.15
2022-08-26T19:17:12.289Z,25.04
2022-08-26T19:19:38.992Z,25.05
2022-08-26T19:22:25.528Z,25.07
2022-08-26T19:25:12.183Z,25.02
2022-08-26T19:27:58.724Z,24.97
2022-08-26T19:30:29.830Z,24.89
2022-08-26T19:33:17.030Z,24.70
2022-08-26T19:36:06.490Z,24.64
2022-08-26T19:38:50.863Z,24.54
2022-08-26T19:41:38.904Z,24.41
2022-08-26T19:44:44.117Z,24.22
2022-08-26T19:47:31.439Z,24.12
2022-08-26T19:50:18.039Z,23.85
2022-08-26T19:53:04.732Z,23.56
2022-08-26T19:55:51.886Z,23.63
2022-08-26T19:58:38.512Z,23.46
2022-08-26T20:01:25.745Z,23.22
2022-08-26T20:04:12.727Z,23.09
2022-08-26T20:07:00.902Z,23.02
2022-08-26T20:09:48.160Z,22.95
2022-08-26T20:12:15.545Z,22.89
2022-08-26T20:14:46.269Z,22.81
2022-08-26T20:17:32.952Z,22.73
2022-08-26T20:20:32.736Z,22.55
2022-08-26T20:23:01.755Z,22.46
2022-08-26T20:25:30.256Z,22.36
2022-08-26T20:28:06.473Z,22.40
2022-08-26T20:30:33.388Z,22.34
2022-08-26T20:33:20.576Z,22.20
2022-08-26T20:36:10.166Z,22.13
2022-08-26T20:38:57.166Z,22.02
2022-08-26T20:41:32.980Z,21.95
2022-08-26T20:44:09.434Z,21.90
2022-08-26T20:46:36.220Z,21.83
2022-08-26T20:49:04.501Z,21.80
2022-08-26T20:51:37.478Z,21.75
2022-08-26T20:54:05.279Z,21.60
2022-08-26T20:56:31.834Z,21.48
2022-08-26T20:59:00.003Z,21.36
2022-08-26T21:01:28.391Z,21.37
2022-08-26T21:03:55.802Z,21.37
2022-08-26T21:06:23.252Z,21.36
2022-08-26T21:08:50.642Z,21.35
2022-08-26T21:11:18.413Z,21.39
2022-08-26T21:14:06.793Z,21.25
2022-08-26T21:16:46.210Z,21.28
2022-08-26T21:19:31.941Z,21.23
2022-08-26T21:22:18.475Z,21.11
2022-08-26T21:24:46.158Z,20.87
2022-08-26T21:27:34.250Z,20.94
2022-08-26T21:30:20.752Z,20.96
2022-08-26T21:33:04.335Z,20.98
2022-08-26T21:35:51.959Z,21.06
2022-08-26T21:38:20.420Z,21.07
2022-08-26T21:41:07.346Z,21.07
2022-08-26T21:43:35.641Z,20.99
2022-08-26T21:46:17.090Z,21.06
2022-08-26T21:48:49.938Z,21.03
2022-08-26T21:51:33.776Z,21.00
2022-08-26T21:54:01.633Z,20.74
2022-08-26T21:56:46.726Z,20.95
2022-08-26T21:59:14.747Z,20.90
2022-08-26T22:01:41.667Z,20.88
2022-08-26T22:04:09.262Z,21.02
2022-08-26T22:06:39.513Z,20.96
2022-08-26T22:09:06.025Z,20.66
2022-08-26T22:11:32.520Z,20.85
2022-08-26T22:13:59.413Z,20.75
2022-08-26T22:16:28.827Z,20.78
2022-08-26T22:19:17.335Z,20.85
2022-08-26T22:21:45.312Z,20.83
2022-08-26T22:24:12.483Z,20.74
2022-08-26T22:26:43.235Z,20.73
2022-08-26T22:29:09.893Z,20.71
2022-08-26T22:31:38.082Z,20.74
2022-08-26T22:34:09.588Z,20.60
2022-08-26T22:36:42.684Z,20.51
2022-08-26T22:39:11.143Z,20.62
2022-08-26T22:41:37.831Z,20.47
2022-08-26T22:44:04.958Z,20.45
2022-08-26T22:46:40.857Z,20.48
2022-08-26T22:49:27.367Z,20.49
2022-08-26T22:52:13.823Z,20.28
2022-08-26T22:54:42.236Z,20.25
2022-08-26T22:57:28.772Z,20.32
2022-08-26T23:00:15.399Z,20.07
2022-08-26T23:03:02.925Z,20.14
2022-08-26T23:05:49.490Z,20.00
2022-08-26T23:08:36.536Z,19.87
2022-08-26T23:11:23.162Z,19.97
2022-08-26T23:14:09.971Z,19.89
2022-08-26T23:16:39.588Z,19.81
2022-08-26T23:19:09.494Z,19.72
2022-08-26T23:21:36.088Z,19.77
2022-08-26T23:24:02.836Z,19.71
2022-08-26T23:26:29.458Z,19.59
2022-08-26T23:28:55.980Z,19.66
2022-08-26T23:31:22.479Z,19.67
2022-08-26T23:34:07.740Z,19.48
2022-08-26T23:36:35.094Z,19.39
2022-08-26T23:39:03.211Z,19.41
2022-08-26T23:41:29.732Z,19.30
2022-08-26T23:43:59.562Z,19.33
2022-08-26T23:46:43.286Z,19.16
2022-08-26T23:49:29.977Z,19.19
2022-08-26T23:52:35.167Z,19.36
2022-08-26T23:55:23.249Z,19.24
2022-08-26T23:57:50.105Z,19.38
